Time;durP1;ratioP1;P1;durP2;ratioP2;P2;SDS_P1;SDS_P2;PMS_P1;PMS_P2;Temp;Humidity;BMP_temperature;BMP_pressure;BME280_temperature;BME280_humidity;BME280_pressure;Samples;Min_cycle;Max_cycle;Signal;HPM_P1;HPM_P2
2024/02/17 00:00:18;;;;;;;9.05;3.80;;;;;;;9.77;100.00;97324.66;5025696;28;20444;-72
2024/02/17 00:02:43;;;;;;;15.35;4.97;;;;;;;9.82;100.00;97326.34;5001036;28;20030;-71
2024/02/17 00:05:09;;;;;;;11.25;4.57;;;;;;;9.86;100.00;97326.47;4999002;28;20075;-72
2024/02/17 00:07:34;;;;;;;9.00;3.92;;;;;;;9.91;100.00;97327.00;5021714;28;20373;-71
2024/02/17 00:10:00;;;;;;;11.93;4.65;;;;;;;10.02;100.00;97330.06;4989593;28;20098;-71
2024/02/17 00:12:25;;;;;;;9.80;3.92;;;;;;;9.98;100.00;97333.84;4991848;28;20068;-70
2024/02/17 00:14:51;;;;;;;9.15;3.70;;;;;;;9.95;100.00;97336.09;5032247;28;20044;-71
2024/02/17 00:17:16;;;;;;;7.63;3.20;;;;;;;10.10;100.00;97333.78;5024422;28;20497;-71
2024/02/17 00:19:42;;;;;;;9.38;3.20;;;;;;;10.13;100.00;97333.88;5017827;28;20049;-71
2024/02/17 00:22:07;;;;;;;9.40;3.60;;;;;;;10.07;100.00;97339.97;5001692;28;20103;-70
2024/02/17 00:24:33;;;;;;;10.40;5.35;;;;;;;9.67;100.00;97341.56;5001883;28;20574;-71
2024/02/17 00:26:58;;;;;;;11.90;4.70;;;;;;;9.28;100.00;97341.13;5015031;28;20052;-71
2024/02/17 00:29:23;;;;;;;11.38;5.05;;;;;;;9.14;100.00;97357.88;5001440;28;20477;-71
2024/02/17 00:31:49;;;;;;;11.57;6.07;;;;;;;9.10;100.00;97358.91;5029260;28;20715;-70
2024/02/17 00:34:15;;;;;;;9.55;6.88;;;;;;;9.17;100.00;97359.13;5012586;28;20366;-71
2024/02/17 00:36:41;;;;;;;13.75;7.15;;;;;;;9.35;100.00;97354.25;5014734;28;20033;-70
2024/02/17 00:39:09;;;;;;;11.45;6.70;;;;;;;9.56;100.00;97354.09;5019180;28;20092;-70
2024/02/17 00:41:35;;;;;;;12.32;6.18;;;;;;;9.63;100.00;97367.97;5007921;28;20049;-71
2024/02/17 00:44:01;;;;;;;11.40;5.38;;;;;;;9.76;100.00;97364.09;4990289;28;20038;-70
2024/02/17 00:46:27;;;;;;;17.40;4.80;;;;;;;9.85;100.00;97365.91;5024679;28;20048;-70
2024/02/17 00:48:52;;;;;;;11.15;5.63;;;;;;;9.81;100.00;97367.72;5024896;28;20037;-70
2024/02/17 00:51:18;;;;;;;16.67;6.97;;;;;;;9.76;100.00;97360.59;5024221;28;20043;-70
2024/02/17 00:53:43;;;;;;;20.80;7.90;;;;;;;9.80;100.00;97368.91;5025210;28;20147;-70
2024/02/17 00:56:09;;;;;;;13.23;6.18;;;;;;;9.91;100.00;97376.25;5020013;28;20046;-70
2024/02/17 00:58:34;;;;;;;68.38;22.33;;;;;;;9.95;100.00;97381.84;5004935;28;20054;-68
2024/02/17 01:01:00;;;;;;;30.80;10.05;;;;;;;9.90;100.00;97373.88;4989980;28;20056;-70
2024/02/17 01:03:26;;;;;;;16.02;7.93;;;;;;;9.81;100.00;97379.47;5019744;28;20042;-69
2024/02/17 01:05:51;;;;;;;13.57;6.97;;;;;;;9.72;100.00;97376.88;4994253;28;20049;-69
2024/02/17 01:08:17;;;;;;;20.63;9.60;;;;;;;9.72;100.00;97384.28;5016794;28;20577;-69
2024/02/17 01:10:42;;;;;;;12.48;7.85;;;;;;;9.63;100.00;97384.41;5018617;28;20044;-71
2024/02/17 01:13:09;;;;;;;20.75;10.38;;;;;;;9.54;100.00;97381.00;5019092;28;20048;-71
2024/02/17 01:15:37;;;;;;;18.15;7.60;;;;;;;9.51;100.00;97390.69;5005675;28;20030;-70
2024/02/17 01:18:03;;;;;;;14.57;7.30;;;;;;;9.52;100.00;97400.47;5020114;28;20045;-70
2024/02/17 01:20:28;;;;;;;12.88;6.70;;;;;;;9.52;100.00;97391.47;5024722;28;20049;-70
2024/02/17 01:22:54;;;;;;;12.63;6.22;;;;;;;9.61;100.00;97392.16;5023584;28;20042;-71
2024/02/17 01:25:20;;;;;;;14.15;6.00;;;;;;;9.61;100.00;97394.09;5015839;28;20044;-71
2024/02/17 01:27:47;;;;;;;13.70;6.97;;;;;;;9.57;100.00;97404.91;5024745;28;20403;-70
2024/02/17 01:30:13;;;;;;;16.73;7.65;;;;;;;9.52;100.00;97405.94;5018676;28;20045;-70
2024/02/17 01:32:38;;;;;;;12.77;6.72;;;;;;;9.56;100.00;97404.13;5007266;28;20139;-71
2024/02/17 01:35:04;;;;;;;15.93;7.45;;;;;;;9.56;100.00;97409.59;5033672;28;20063;-69
2024/02/17 01:37:30;;;;;;;10.73;6.38;;;;;;;9.65;100.00;97405.94;5015565;28;20481;-70
2024/02/17 01:39:56;;;;;;;12.73;6.93;;;;;;;9.64;100.00;97412.56;5006352;28;20045;-70
2024/02/17 01:42:22;;;;;;;13.40;6.53;;;;;;;9.63;100.00;97409.00;5027312;28;20050;-69
2024/02/17 01:44:47;;;;;;;12.18;7.00;;;;;;;9.62;100.00;97406.66;5036281;28;20053;-70
2024/02/17 01:47:13;;;;;;;11.98;6.68;;;;;;;9.61;100.00;97415.97;5028386;28;20048;-69
2024/02/17 01:49:38;;;;;;;13.45;6.28;;;;;;;9.64;100.00;97409.81;5011552;28;20033;-70
2024/02/17 01:52:05;;;;;;;10.00;6.35;;;;;;;9.64;100.00;97413.34;5021788;28;20045;-68
2024/02/17 01:54:31;;;;;;;11.98;5.50;;;;;;;9.67;100.00;97418.16;4990637;28;20030;-69
2024/02/17 01:56:59;;;;;;;10.70;5.50;;;;;;;9.80;100.00;97418.13;5021676;28;20040;-69
2024/02/17 01:59:26;;;;;;;10.30;4.93;;;;;;;9.88;100.00;97414.47;5018799;28;20053;-70
2024/02/17 02:01:53;;;;;;;7.55;4.13;;;;;;;9.96;100.00;97419.03;5023926;28;20455;-69
2024/02/17 02:04:19;;;;;;;7.90;4.47;;;;;;;9.80;100.00;97416.19;4997409;28;20045;-69
2024/02/17 02:06:44;;;;;;;8.52;4.65;;;;;;;9.71;100.00;97421.00;5024012;28;20136;-70
2024/02/17 02:09:10;;;;;;;9.23;5.50;;;;;;;9.55;100.00;97420.88;5018223;28;20448;-68
2024/02/17 02:11:36;;;;;;;6.95;5.10;;;;;;;9.38;100.00;97419.97;5027918;28;20065;-68
2024/02/17 02:14:15;;;;;;;10.68;6.85;;;;;;;9.04;100.00;97421.19;5024371;28;20060;-68
2024/02/17 02:17:24;;;;;;;13.85;7.50;;;;;;;8.93;100.00;97420.81;5014492;28;20094;-71
2024/02/17 02:19:49;;;;;;;8.75;6.65;;;;;;;8.89;100.00;97424.56;4993431;28;20041;-69
2024/02/17 02:22:15;;;;;;;11.48;6.80;;;;;;;8.93;100.00;97423.56;5016070;28;20045;-70
2024/02/17 02:24:41;;;;;;;10.50;6.90;;;;;;;8.92;100.00;97429.34;5009463;28;20125;-70
2024/02/17 02:27:06;;;;;;;12.52;6.60;;;;;;;8.91;100.00;97422.28;5011152;28;20041;-70
2024/02/17 02:29:32;;;;;;;10.10;6.47;;;;;;;8.92;100.00;97430.13;5018722;28;20045;-70
2024/02/17 02:31:57;;;;;;;14.60;6.93;;;;;;;8.98;100.00;97428.81;4985853;28;20038;-70
2024/02/17 02:34:23;;;;;;;11.98;7.22;;;;;;;9.17;100.00;97430.19;5003976;28;20052;-71
2024/02/17 02:36:48;;;;;;;12.18;6.43;;;;;;;9.27;100.00;97437.16;5013860;28;20695;-71
2024/02/17 02:39:13;;;;;;;15.63;7.80;;;;;;;9.31;100.00;97438.88;4993064;28;20037;-71
2024/02/17 02:41:39;;;;;;;16.00;7.15;;;;;;;9.32;100.00;97440.44;5022465;28;20052;-71
2024/02/17 02:44:04;;;;;;;9.88;5.60;;;;;;;9.41;100.00;97440.34;5017368;28;20048;-70
2024/02/17 02:46:30;;;;;;;13.23;5.90;;;;;;;9.51;100.00;97441.84;5018513;28;20050;-71
2024/02/17 02:48:55;;;;;;;14.32;6.13;;;;;;;9.61;100.00;97446.84;5017577;28;20415;-70
2024/02/17 02:51:21;;;;;;;13.00;5.15;;;;;;;9.65;100.00;97450.50;5000339;28;20065;-71
2024/02/17 02:53:46;;;;;;;10.20;4.68;;;;;;;9.69;100.00;97451.41;5005547;28;20042;-71
2024/02/17 02:56:12;;;;;;;9.02;4.50;;;;;;;9.61;100.00;97448.78;5018102;28;20496;-71
2024/02/17 02:58:37;;;;;;;7.80;4.72;;;;;;;9.57;100.00;97451.41;5023367;28;20120;-71
2024/02/17 03:01:03;;;;;;;23.60;8.57;;;;;;;9.66;100.00;97456.78;5027648;28;20072;-70
2024/02/17 03:03:28;;;;;;;11.18;5.53;;;;;;;9.74;100.00;97453.13;5004092;28;20041;-71
2024/02/17 03:05:54;;;;;;;11.30;5.28;;;;;;;9.70;100.00;97449.47;5005343;28;20068;-71
2024/02/17 03:08:21;;;;;;;12.02;5.22;;;;;;;9.70;100.00;97450.25;5016421;28;20046;-72
2024/02/17 03:10:46;;;;;;;9.65;5.38;;;;;;;9.65;100.00;97453.25;5011253;28;20097;-72
2024/02/17 03:13:12;;;;;;;12.27;5.47;;;;;;;9.62;100.00;97455.88;5017753;28;20127;-71
2024/02/17 03:15:37;;;;;;;12.25;5.57;;;;;;;9.63;100.00;97450.03;5022186;28;20117;-71
2024/02/17 03:18:04;;;;;;;12.90;5.20;;;;;;;9.62;100.00;97455.88;5030601;28;20029;-71
2024/02/17 03:20:29;;;;;;;7.55;4.90;;;;;;;9.69;100.00;97456.88;5031021;28;20053;-72
2024/02/17 03:22:55;;;;;;;7.22;5.00;;;;;;;9.69;100.00;97464.31;5023181;28;20038;-72
2024/02/17 03:25:21;;;;;;;9.05;5.55;;;;;;;9.63;100.00;97460.97;5013202;28;20522;-72
2024/02/17 03:27:46;;;;;;;9.85;5.30;;;;;;;9.54;100.00;97457.56;5028241;28;20052;-72
2024/02/17 03:30:11;;;;;;;9.68;4.80;;;;;;;9.49;100.00;97469.53;5015976;28;20554;-71
2024/02/17 03:32:38;;;;;;;10.48;5.70;;;;;;;9.50;100.00;97473.84;5021886;28;20234;-71
2024/02/17 03:35:03;;;;;;;9.35;5.07;;;;;;;9.52;100.00;97470.78;4983046;28;20091;-69
2024/02/17 03:37:30;;;;;;;8.43;4.68;;;;;;;9.53;100.00;97469.66;5021945;28;20049;-71
2024/02/17 03:39:56;;;;;;;12.65;5.47;;;;;;;9.38;100.00;97473.84;5009286;28;20136;-71
2024/02/17 03:42:22;;;;;;;9.40;5.55;;;;;;;9.28;100.00;97474.28;4999065;28;20072;-71
2024/02/17 03:44:47;;;;;;;12.43;6.75;;;;;;;9.21;100.00;97477.56;5021958;28;20057;-71
2024/02/17 03:47:13;;;;;;;9.43;6.05;;;;;;;9.21;100.00;97480.31;5015524;28;20488;-71
2024/02/17 03:49:38;;;;;;;12.95;6.43;;;;;;;9.44;100.00;97488.91;4994757;28;20128;-72
2024/02/17 03:52:04;;;;;;;9.88;5.95;;;;;;;9.44;100.00;97491.63;5015234;28;20115;-72
2024/02/17 03:54:30;;;;;;;11.27;5.22;;;;;;;9.42;100.00;97488.44;5025750;28;20033;-72
2024/02/17 03:56:55;;;;;;;11.48;5.57;;;;;;;9.44;100.00;97488.09;5026091;28;20116;-72
2024/02/17 03:59:21;;;;;;;9.95;4.88;;;;;;;9.43;100.00;97492.75;5027219;28;20065;-72
2024/02/17 04:01:47;;;;;;;10.88;5.10;;;;;;;9.50;100.00;97486.72;5032904;28;20073;-71
2024/02/17 04:04:12;;;;;;;11.02;5.20;;;;;;;9.48;100.00;97497.22;5008537;28;20041;-72
2024/02/17 04:06:38;;;;;;;17.35;6.97;;;;;;;9.45;100.00;97495.94;5031234;28;20065;-72
2024/02/17 04:09:03;;;;;;;18.40;6.85;;;;;;;9.50;100.00;97503.94;5013952;28;20070;-71
2024/02/17 04:11:29;;;;;;;13.65;6.80;;;;;;;9.49;100.00;97502.34;4990117;28;20924;-71
2024/02/17 04:13:56;;;;;;;10.60;5.88;;;;;;;9.47;100.00;97509.28;5026256;28;20668;-71
2024/02/17 04:16:22;;;;;;;10.75;6.55;;;;;;;9.42;100.00;97513.03;5022987;28;20053;-71
2024/02/17 04:18:48;;;;;;;9.88;6.70;;;;;;;9.38;100.00;97520.31;5029824;28;20128;-71
2024/02/17 04:21:14;;;;;;;10.10;6.57;;;;;;;9.35;100.00;97524.53;5018780;28;20531;-70
2024/02/17 04:23:39;;;;;;;11.65;6.93;;;;;;;9.33;100.00;97531.47;5024966;28;20041;-71
2024/02/17 04:26:06;;;;;;;11.18;6.50;;;;;;;9.33;100.00;97536.94;5016344;28;20528;-71
2024/02/17 04:28:35;;;;;;;12.60;6.85;;;;;;;9.37;100.00;97535.13;5005067;28;20404;-71
2024/02/17 04:31:00;;;;;;;11.38;6.10;;;;;;;9.53;100.00;97527.09;5022631;28;20045;-71
2024/02/17 04:33:26;;;;;;;9.98;5.40;;;;;;;9.64;100.00;97535.66;5020848;28;20054;-71
2024/02/17 04:35:51;;;;;;;16.75;6.63;;;;;;;9.61;100.00;97533.59;5027011;28;20399;-71
2024/02/17 04:38:17;;;;;;;15.40;5.82;;;;;;;9.55;100.00;97538.47;5002210;28;20539;-71
2024/02/17 04:40:43;;;;;;;10.95;6.93;;;;;;;9.52;100.00;97545.41;5008785;28;20048;-71
2024/02/17 04:43:09;;;;;;;13.63;6.93;;;;;;;9.48;100.00;97549.16;5005070;28;20408;-71
2024/02/17 04:45:34;;;;;;;9.23;6.18;;;;;;;9.43;100.00;97552.13;5025614;28;20057;-71
2024/02/17 04:47:59;;;;;;;9.07;5.82;;;;;;;9.36;100.00;97558.94;5024473;28;20481;-71
2024/02/17 04:50:25;;;;;;;8.02;5.22;;;;;;;9.36;100.00;97566.31;5018142;28;20046;-72
2024/02/17 04:52:50;;;;;;;8.63;5.90;;;;;;;9.32;100.00;97566.19;5024423;28;20118;-71
2024/02/17 04:55:16;;;;;;;8.32;4.97;;;;;;;9.35;100.00;97567.47;5020647;28;20045;-71
2024/02/17 04:57:41;;;;;;;9.73;5.47;;;;;;;9.33;100.00;97577.97;5022035;28;20061;-71
2024/02/17 05:00:08;;;;;;;9.40;6.03;;;;;;;9.36;100.00;97569.88;5036597;28;20076;-72
2024/02/17 05:02:38;;;;;;;8.60;5.00;;;;;;;9.40;100.00;97572.75;5009249;28;20427;-72
2024/02/17 05:05:04;;;;;;;8.88;5.55;;;;;;;9.46;100.00;97563.19;5015388;28;20073;-71
2024/02/17 05:07:29;;;;;;;11.20;6.03;;;;;;;9.47;100.00;97570.25;5026548;28;20052;-72
2024/02/17 05:09:55;;;;;;;8.98;6.25;;;;;;;9.45;100.00;97577.19;5013305;28;20037;-72
2024/02/17 05:12:20;;;;;;;7.68;4.80;;;;;;;9.46;100.00;97570.59;5025337;28;20290;-72
2024/02/17 05:14:46;;;;;;;10.40;4.40;;;;;;;9.43;100.00;97582.19;5012429;28;20068;-72
2024/02/17 05:17:12;;;;;;;8.02;4.68;;;;;;;9.41;100.00;97584.47;5006166;28;20076;-71
2024/02/17 05:19:37;;;;;;;7.80;5.07;;;;;;;9.49;100.00;97584.38;5034086;28;20037;-72
2024/02/17 05:22:06;;;;;;;10.13;4.53;;;;;;;9.54;100.00;97586.91;5016484;28;20068;-71
2024/02/17 05:24:31;;;;;;;9.52;5.03;;;;;;;9.47;100.00;97589.41;5020341;28;20567;-72
2024/02/17 05:26:57;;;;;;;11.23;4.85;;;;;;;9.40;100.00;97591.06;5024544;28;20049;-73
2024/02/17 05:29:23;;;;;;;7.70;4.85;;;;;;;9.46;100.00;97581.53;5020231;28;20037;-72
2024/02/17 05:31:48;;;;;;;12.50;5.97;;;;;;;9.44;100.00;97590.06;5025381;28;20092;-72
2024/02/17 05:34:17;;;;;;;7.13;5.32;;;;;;;9.43;100.00;97590.41;5021457;28;20420;-73
2024/02/17 05:36:42;;;;;;;12.88;5.63;;;;;;;9.35;100.00;97595.63;5030774;28;20897;-72
2024/02/17 05:39:09;;;;;;;11.45;5.93;;;;;;;9.23;100.00;97606.50;5019611;28;20063;-73
2024/02/17 05:41:34;;;;;;;9.65;5.97;;;;;;;9.06;100.00;97606.66;5032117;28;20053;-73
2024/02/17 05:44:00;;;;;;;9.27;6.28;;;;;;;9.01;100.00;97615.84;5012056;28;20478;-73
2024/02/17 05:46:25;;;;;;;11.95;6.55;;;;;;;8.97;100.00;97612.19;5023217;28;20053;-72
2024/02/17 05:48:51;;;;;;;13.32;6.95;;;;;;;9.01;100.00;97612.34;5031918;28;20037;-71
2024/02/17 05:51:17;;;;;;;11.80;7.28;;;;;;;9.08;100.00;97607.13;5027582;28;20136;-71
2024/02/17 05:53:42;;;;;;;9.70;6.88;;;;;;;9.10;100.00;97613.06;5024702;28;20539;-71
2024/02/17 05:56:08;;;;;;;11.07;6.28;;;;;;;9.08;100.00;97613.38;5003807;28;20042;-70
2024/02/17 05:58:36;;;;;;;9.55;6.35;;;;;;;9.05;100.00;97616.78;5027540;28;20045;-72
2024/02/17 06:01:02;;;;;;;15.65;7.55;;;;;;;9.14;100.00;97620.22;5020392;28;20073;-72
2024/02/17 06:03:28;;;;;;;17.73;9.13;;;;;;;9.15;100.00;97626.53;5022285;28;20041;-72
2024/02/17 06:05:53;;;;;;;13.82;7.65;;;;;;;9.18;100.00;97626.66;5021572;28;20041;-71
2024/02/17 06:08:19;;;;;;;15.65;7.68;;;;;;;9.19;100.00;97632.91;5000294;28;20041;-72
2024/02/17 06:10:45;;;;;;;13.05;6.82;;;;;;;9.23;100.00;97635.78;5009349;28;20040;-70
2024/02/17 06:13:11;;;;;;;13.27;7.28;;;;;;;9.25;100.00;97645.22;5021140;28;20037;-70
2024/02/17 06:15:38;;;;;;;12.27;7.05;;;;;;;9.23;100.00;97647.50;5026952;28;20063;-71
2024/02/17 06:23:31;;;;;;;12.15;6.88;;;;;;;9.19;100.00;97652.84;5014892;28;20073;-72
2024/02/17 06:25:57;;;;;;;11.18;6.70;;;;;;;9.23;100.00;97660.38;5017024;28;20137;-72
2024/02/17 06:28:22;;;;;;;8.88;6.40;;;;;;;9.26;100.00;97665.19;5017303;28;20552;-71
2024/02/17 06:30:48;;;;;;;10.85;7.10;;;;;;;9.25;100.00;97661.63;4988522;28;20099;-71
2024/02/17 06:33:13;;;;;;;11.00;6.82;;;;;;;9.28;100.00;97654.72;4983363;28;20056;-71
2024/02/17 06:35:39;;;;;;;9.88;6.30;;;;;;;9.29;100.00;97670.78;5005611;28;20041;-71
2024/02/17 06:38:05;;;;;;;12.32;6.32;;;;;;;9.35;100.00;97672.16;5016046;28;20053;-71
2024/02/17 06:40:30;;;;;;;20.42;8.27;;;;;;;9.43;100.00;97670.47;5022880;28;20073;-71
2024/02/17 06:42:55;;;;;;;13.13;7.15;;;;;;;9.38;100.00;97671.50;5004144;28;20190;-71
2024/02/17 06:45:21;;;;;;;17.10;6.90;;;;;;;9.28;100.00;97677.38;5016305;28;20762;-71
2024/02/17 06:47:46;;;;;;;9.90;6.25;;;;;;;9.34;100.00;97677.97;5027823;28;20255;-70
2024/02/17 06:50:13;;;;;;;9.40;6.40;;;;;;;9.38;100.00;97676.16;5017580;28;20483;-70
2024/02/17 06:52:38;;;;;;;9.77;6.63;;;;;;;9.46;100.00;97682.69;5027450;28;20044;-71
2024/02/17 06:55:08;;;;;;;12.05;6.95;;;;;;;9.47;100.00;97681.56;5019842;28;20049;-71
2024/02/17 06:57:33;;;;;;;9.38;6.53;;;;;;;9.49;100.00;97682.84;5013177;28;20076;-71
2024/02/17 06:59:59;;;;;;;9.73;6.93;;;;;;;9.46;100.00;97688.97;4988680;28;20049;-71
2024/02/17 07:02:24;;;;;;;13.27;7.82;;;;;;;9.38;100.00;97690.66;5017059;28;20041;-71
2024/02/17 07:04:50;;;;;;;14.80;7.93;;;;;;;9.31;100.00;97695.03;5005462;28;20053;-70
2024/02/17 07:07:16;;;;;;;12.88;7.90;;;;;;;9.16;100.00;97699.16;4998389;28;20049;-70
2024/02/17 07:09:43;;;;;;;13.48;8.48;;;;;;;9.07;100.00;97699.22;5014438;28;20096;-70
2024/02/17 07:12:08;;;;;;;21.75;10.77;;;;;;;9.02;100.00;97696.72;5015980;28;20037;-71
2024/02/17 07:14:34;;;;;;;14.85;8.57;;;;;;;9.06;100.00;97711.31;5022023;28;20136;-71
2024/02/17 07:16:59;;;;;;;12.00;8.25;;;;;;;9.07;100.00;97710.16;5024960;28;20038;-70
2024/02/17 07:19:25;;;;;;;12.68;7.45;;;;;;;9.10;100.00;97717.69;5021276;28;20041;-71
2024/02/17 07:21:50;;;;;;;13.40;8.98;;;;;;;9.17;100.00;97714.44;5007272;28;20052;-71
2024/02/17 07:24:16;;;;;;;15.60;10.15;;;;;;;9.22;100.00;97724.38;4999916;28;20410;-71
2024/02/17 07:26:45;;;;;;;16.55;8.75;;;;;;;9.30;100.00;97720.78;4995871;28;20050;-71
2024/02/17 07:29:11;;;;;;;14.40;8.68;;;;;;;9.35;100.00;97724.13;5026537;28;20046;-71
2024/02/17 07:31:41;;;;;;;15.05;8.77;;;;;;;9.34;100.00;97730.69;5012776;28;20046;-71
2024/02/17 07:34:13;;;;;;;14.63;9.50;;;;;;;9.26;100.00;97736.25;5000909;28;20041;-71
2024/02/17 07:36:38;;;;;;;19.23;11.68;;;;;;;9.16;100.00;97743.72;5026872;28;20083;-70
2024/02/17 07:39:04;;;;;;;13.00;9.32;;;;;;;9.11;100.00;97749.38;5003404;28;20045;-71
2024/02/17 07:41:30;;;;;;;12.15;8.55;;;;;;;9.23;100.00;97754.09;5028528;28;20061;-71
2024/02/17 07:43:55;;;;;;;17.15;9.27;;;;;;;9.25;100.00;97757.31;5026006;28;20540;-71
2024/02/17 07:46:21;;;;;;;11.43;8.10;;;;;;;9.32;100.00;97763.03;5023749;28;20053;-70
2024/02/17 07:48:46;;;;;;;15.02;8.25;;;;;;;9.36;100.00;97764.00;5022633;28;20153;-71
2024/02/17 07:51:12;;;;;;;15.43;8.60;;;;;;;9.43;100.00;97765.41;4999122;28;20098;-72
2024/02/17 07:53:38;;;;;;;14.27;8.20;;;;;;;9.44;100.00;97767.00;5023063;28;20041;-70
2024/02/17 07:56:05;;;;;;;12.30;8.27;;;;;;;9.49;100.00;97770.34;5009023;28;20040;-70
2024/02/17 07:58:30;;;;;;;13.48;8.55;;;;;;;9.47;100.00;97774.53;4987721;28;20401;-70
2024/02/17 08:00:56;;;;;;;15.43;8.63;;;;;;;9.44;100.00;97776.00;5023453;28;20122;-70
2024/02/17 08:03:21;;;;;;;18.95;12.63;;;;;;;9.34;100.00;97787.31;4999712;28;20076;-71
2024/02/17 08:05:48;;;;;;;15.57;10.98;;;;;;;9.24;100.00;97787.69;5007037;28;20037;-71
2024/02/17 08:08:13;;;;;;;15.63;9.57;;;;;;;9.25;100.00;97800.25;5027067;28;20041;-70
2024/02/17 08:10:39;;;;;;;12.95;8.55;;;;;;;9.47;100.00;97804.59;5017704;28;20041;-70
2024/02/17 08:13:04;;;;;;;14.18;9.88;;;;;;;9.68;100.00;97812.84;4999793;28;20684;-70
2024/02/17 08:15:29;;;;;;;15.25;9.80;;;;;;;9.62;100.00;97811.44;5022566;28;20058;-70
2024/02/17 08:17:55;;;;;;;18.05;11.60;;;;;;;9.66;100.00;97813.16;5022434;28;20041;-70
2024/02/17 08:20:21;;;;;;;18.30;11.50;;;;;;;9.71;100.00;97820.38;5022161;28;20504;-70
2024/02/17 08:22:48;;;;;;;16.25;10.45;;;;;;;9.34;100.00;97825.59;5041717;28;20022;-70
2024/02/17 08:25:13;;;;;;;14.98;10.40;;;;;;;8.90;100.00;97827.78;5024571;28;20041;-71
2024/02/17 08:27:43;;;;;;;17.60;13.23;;;;;;;8.67;100.00;97838.13;5023450;28;20041;-71
2024/02/17 08:30:09;;;;;;;17.38;11.82;;;;;;;8.86;100.00;97840.47;5033711;28;20044;-71
2024/02/17 08:32:35;;;;;;;17.83;10.32;;;;;;;9.05;100.00;97842.81;5038764;28;20049;-71
2024/02/17 08:35:01;;;;;;;14.13;10.05;;;;;;;9.18;100.00;97844.50;5012561;28;20045;-71
2024/02/17 08:37:27;;;;;;;15.80;10.05;;;;;;;9.28;100.00;97848.81;5024634;28;20100;-71
2024/02/17 08:39:52;;;;;;;13.88;9.98;;;;;;;9.33;100.00;97849.41;5028212;28;20033;-71
2024/02/17 08:42:18;;;;;;;13.43;9.13;;;;;;;9.44;100.00;97859.97;5025181;28;20041;-71
2024/02/17 08:44:44;;;;;;;14.27;9.40;;;;;;;9.57;100.00;97856.19;5013577;28;20068;-71
2024/02/17 08:47:09;;;;;;;12.32;8.40;;;;;;;9.73;100.00;97861.88;5009612;28;20073;-71
2024/02/17 08:49:35;;;;;;;13.80;8.57;;;;;;;9.89;100.00;97862.09;5008228;28;20052;-72
2024/02/17 08:52:01;;;;;;;11.15;8.02;;;;;;;10.06;100.00;97864.66;5027317;28;20095;-70
2024/02/17 08:54:26;;;;;;;12.98;7.22;;;;;;;10.17;100.00;97876.03;5018752;28;20113;-70
2024/02/17 08:56:53;;;;;;;12.55;7.35;;;;;;;10.30;100.00;97868.69;5010096;28;20491;-70
2024/02/17 08:59:19;;;;;;;15.70;8.57;;;;;;;10.38;100.00;97870.56;5021348;28;20037;-71
2024/02/17 09:01:44;;;;;;;9.40;6.97;;;;;;;10.49;100.00;97868.19;5007493;28;20049;-71
2024/02/17 09:04:10;;;;;;;10.38;6.05;;;;;;;10.46;100.00;97866.94;5003025;28;20046;-71
2024/02/17 09:06:35;;;;;;;11.05;6.80;;;;;;;9.82;100.00;97862.63;5008619;28;20042;-70
2024/02/17 09:09:01;;;;;;;6.72;5.00;;;;;;;10.08;100.00;97869.81;5016509;28;20388;-70
2024/02/17 09:11:26;;;;;;;11.35;7.40;;;;;;;10.28;100.00;97873.66;5018484;28;20128;-70
2024/02/17 09:13:52;;;;;;;10.30;7.55;;;;;;;10.23;100.00;97871.97;5038160;28;20052;-70
2024/02/17 09:16:17;;;;;;;8.93;5.70;;;;;;;10.41;100.00;97867.16;5033868;28;20033;-70
2024/02/17 09:18:43;;;;;;;5.55;4.00;;;;;;;9.86;100.00;97868.22;5015261;28;20105;-69
2024/02/17 09:21:08;;;;;;;6.82;4.10;;;;;;;9.64;100.00;97877.56;5002099;28;20052;-69
2024/02/17 09:23:34;;;;;;;7.55;5.28;;;;;;;9.44;100.00;97884.59;5007394;28;20527;-69
2024/02/17 09:26:00;;;;;;;6.90;4.40;;;;;;;9.35;100.00;97881.91;5025514;28;20037;-70
2024/02/17 09:28:25;;;;;;;9.95;5.20;;;;;;;9.42;100.00;97892.28;5020179;28;20038;-69
2024/02/17 09:30:51;;;;;;;9.50;5.28;;;;;;;9.35;100.00;97901.84;4992609;28;20042;-69
2024/02/17 09:33:16;;;;;;;8.52;5.28;;;;;;;9.59;100.00;97896.88;5005278;28;20107;-70
2024/02/17 09:35:41;;;;;;;13.07;6.63;;;;;;;9.63;100.00;97892.34;5029065;28;20056;-69
2024/02/17 09:38:07;;;;;;;7.22;4.97;;;;;;;9.84;100.00;97901.38;5019146;28;20040;-69
2024/02/17 09:40:32;;;;;;;11.65;5.72;;;;;;;9.63;100.00;97898.63;5006213;28;20439;-71
2024/02/17 09:42:58;;;;;;;11.23;7.40;;;;;;;9.43;100.00;97907.59;5024679;28;20566;-71
2024/02/17 09:45:26;;;;;;;10.43;6.70;;;;;;;9.44;100.00;97918.19;5019808;28;20044;-70
2024/02/17 09:47:54;;;;;;;8.55;5.85;;;;;;;9.23;100.00;97914.59;5011826;28;20042;-70
2024/02/17 09:50:19;;;;;;;9.98;7.00;;;;;;;9.47;100.00;97928.50;5004427;28;20073;-70
2024/02/17 09:52:48;;;;;;;12.98;7.28;;;;;;;9.47;100.00;97931.22;5008291;28;20041;-70
2024/02/17 09:55:14;;;;;;;15.30;9.02;;;;;;;9.69;100.00;97930.13;5002201;28;20041;-69
2024/02/17 09:57:39;;;;;;;10.02;6.22;;;;;;;9.76;100.00;97935.88;5026919;28;20120;-70
2024/02/17 10:00:06;;;;;;;11.30;6.60;;;;;;;9.97;100.00;97932.38;5024908;28;20049;-70
2024/02/17 10:02:33;;;;;;;9.63;5.93;;;;;;;10.25;100.00;97945.56;5009963;28;20064;-70
2024/02/17 10:04:58;;;;;;;9.15;6.05;;;;;;;10.08;100.00;97943.72;4986281;28;20121;-70
2024/02/17 10:07:24;;;;;;;17.85;10.88;;;;;;;9.87;100.00;97957.41;5000796;28;20057;-70
2024/02/17 10:09:50;;;;;;;11.88;7.05;;;;;;;9.84;100.00;97958.84;5018922;28;20049;-70
2024/02/17 10:12:17;;;;;;;13.43;8.38;;;;;;;10.03;100.00;97965.81;4970406;28;20041;-69
2024/02/17 10:14:44;;;;;;;9.52;6.57;;;;;;;10.07;100.00;97964.84;5023281;28;20034;-70
2024/02/17 10:17:11;;;;;;;11.68;7.22;;;;;;;9.83;100.00;97970.94;5019197;28;20523;-70
2024/02/17 10:19:40;;;;;;;12.30;7.80;;;;;;;10.13;100.00;97968.16;5005836;28;20076;-69
2024/02/17 10:22:06;;;;;;;11.13;7.20;;;;;;;10.25;100.00;97978.41;5018389;28;20044;-71
2024/02/17 10:24:32;;;;;;;13.30;10.23;;;;;;;10.07;100.00;97975.78;5002328;28;20049;-70
2024/02/17 10:26:57;;;;;;;9.88;5.93;;;;;;;10.21;100.00;97981.00;5026143;28;20042;-70
2024/02/17 10:29:23;;;;;;;9.35;6.68;;;;;;;10.57;100.00;97987.03;5017982;28;20041;-70
2024/02/17 10:31:49;;;;;;;8.35;6.10;;;;;;;10.34;100.00;97984.66;5030839;28;20099;-69
2024/02/17 10:34:15;;;;;;;9.88;6.80;;;;;;;10.40;100.00;97985.25;5024578;28;20488;-69
2024/02/17 10:36:41;;;;;;;10.77;6.70;;;;;;;10.46;100.00;97987.47;5025024;28;20508;-70
2024/02/17 10:39:07;;;;;;;11.82;6.68;;;;;;;10.24;100.00;97990.47;5019578;28;20045;-69
2024/02/17 10:41:35;;;;;;;13.07;7.60;;;;;;;10.29;100.00;97999.31;5030152;28;20045;-68
2024/02/17 10:44:02;;;;;;;14.25;9.63;;;;;;;10.47;100.00;97994.53;5025443;28;20042;-69
2024/02/17 10:46:28;;;;;;;10.98;8.43;;;;;;;10.27;100.00;98003.53;5016240;28;20046;-69
2024/02/17 10:49:12;;;;;;;11.73;8.80;;;;;;;10.56;100.00;98002.69;4993845;28;20065;-68
2024/02/17 10:51:57;;;;;;;9.15;6.13;;;;;;;10.92;100.00;97998.50;5030534;28;20040;-69
2024/02/17 10:54:31;;;;;;;9.68;5.18;;;;;;;10.77;100.00;98002.69;5024924;28;20467;-70
2024/02/17 10:56:57;;;;;;;5.63;4.45;;;;;;;10.27;100.00;98006.25;5024872;28;20038;-70
2024/02/17 10:59:24;;;;;;;7.25;4.82;;;;;;;10.05;100.00;98010.91;5019540;28;20045;-70
2024/02/17 11:01:54;;;;;;;9.27;5.53;;;;;;;10.09;100.00;98011.03;5006144;28;20125;-70
2024/02/17 11:04:22;;;;;;;8.40;5.68;;;;;;;9.86;100.00;98021.47;4995556;28;20050;-69
2024/02/17 11:06:48;;;;;;;8.45;6.05;;;;;;;9.72;100.00;98014.28;4990568;28;20041;-68
2024/02/17 11:09:14;;;;;;;7.95;5.80;;;;;;;9.72;100.00;98018.94;5016101;28;20092;-70
2024/02/17 11:11:40;;;;;;;11.48;6.53;;;;;;;9.79;100.00;98019.22;5006607;28;20045;-70
2024/02/17 11:14:43;;;;;;;9.13;6.15;;;;;;;10.30;100.00;98020.09;5018211;28;20047;-69
2024/02/17 11:17:10;;;;;;;9.45;6.43;;;;;;;10.42;100.00;98010.38;5007609;28;20084;-68
2024/02/17 11:19:36;;;;;;;10.48;6.53;;;;;;;10.81;100.00;98005.56;5029030;28;20045;-70
2024/02/17 11:22:08;;;;;;;8.57;5.90;;;;;;;11.18;100.00;98013.88;4987820;28;20051;-68
2024/02/17 11:24:37;;;;;;;10.93;6.97;;;;;;;10.60;100.00;98016.50;5000108;28;20046;-71
2024/02/17 11:27:06;;;;;;;14.88;8.55;;;;;;;10.18;100.00;98025.47;4992289;28;20062;-69